This is the latest recevied weather packets stored in our database for station/object DK8RG-15. If no packets are shown the sender has not sent any weather packets the latest 10 day(s).
| Time | Temp. | Humidity | Pressure | Rain* | Wind** | Luminosity | Snow |
|---|---|---|---|---|---|---|---|
| 1777761020 | 11.11° C | 61% | 1014.8 hPa | 0 mm | - | - | - |
| 1777759228 | 12.22° C | 59% | 1013.9 hPa | 0 mm | - | - | - |
| 1777758615 | 12.22° C | 58% | 1012.9 hPa | 0 mm | - | - | - |
| 1777758015 | 12.22° C | 59% | 1013.9 hPa | 0 mm | - | - | - |
| 1777757414 | 12.22° C | 57% | 1013.9 hPa | 0 mm | - | - | - |
| 1777756814 | 13.33° C | 55% | 1014 hPa | 0 mm | - | - | - |
| 1777756214 | 13.89° C | 52% | 1014.1 hPa | 0 mm | - | - | - |
| 1777755614 | 13.89° C | 51% | 1014.1 hPa | 0 mm | - | - | - |
| 1777755014 | 13.89° C | 54% | 1014 hPa | 0 mm | - | - | - |
| 1777754414 | 12.78° C | 59% | 1014 hPa | 0 mm | - | - | - |
| 1777753814 | 12.78° C | 60% | 1014 hPa | 0 mm | - | - | - |
| 1777753215 | 12.78° C | 60% | 1014 hPa | 0 mm | - | - | - |
| 1777752614 | 13.33° C | 59% | 1014 hPa | 0 mm | - | - | - |
| 1777752014 | 13.89° C | 58% | 1014.1 hPa | 0 mm | - | - | - |
| 1777751414 | 13.89° C | 57% | 1014.1 hPa | 0 mm | - | - | - |
| 1777750814 | 13.89° C | 56% | 1014.1 hPa | 0 mm | - | - | - |
| 1777750214 | 14.44° C | 55% | 1014.1 hPa | 0 mm | - | - | - |
| 1777749614 | 15° C | 54% | 1014.2 hPa | 0 mm | - | - | - |
| 1777749014 | 15.56° C | 53% | 1014.2 hPa | 0 mm | - | - | - |
| 1777748414 | 16.11° C | 53% | 1014.3 hPa | 0 mm | - | - | - |
| 1777747814 | 16.67° C | 51% | 1014.3 hPa | 0 mm | - | - | - |
| 1777747214 | 17.22° C | 49% | 1014.3 hPa | 0 mm | - | - | - |
| 1777746614 | 18.33° C | 47% | 1014.4 hPa | 0 mm | - | - | - |
| 1777746014 | 19.44° C | 45% | 1014.5 hPa | 0 mm | - | - | - |
| 1777745414 | 20.56° C | 41% | 1014.6 hPa | 0 mm | - | - | - |
* Rain latest hour (hover to see other rain measurements)
** Current wind speed in m/s (hover to see current wind gust speed)